< < Back
Terminal Aerodrome Forecast


Current Version              Previous Versions:   1  2  3  4  5  6  7  8  9  

Terminal Aerodrome Forecast

015
FTUS42 KJAX 042340
TAFSSI
TAF
KSSI 042340Z 0500/0524 29010KT P6SM FEW050 SCT200
     FM051300 28014G24KT P6SM SKC=

Latest METAR

691
SAUS70 KWBC 061600 RRL
MTRSSI
METAR KSSI 061553Z AUTO VRB04KT 10SM CLR 18/07 A2989 RMK AO2 SLP123
T01830072


USA.gov is the U.S. government's official web portal to all federal, state and local government web resources and services.